createdAt,value
2023-04-07T00:02:11.442Z,16.80
2023-04-07T00:04:37.917Z,16.30
2023-04-07T00:07:04.254Z,16.25
2023-04-07T00:09:30.578Z,14.80
2023-04-07T00:11:56.903Z,15.70
2023-04-07T00:14:23.213Z,19.92
2023-04-07T00:16:49.524Z,15.77
2023-04-07T00:19:15.847Z,18.75
2023-04-07T00:21:42.152Z,15.93
2023-04-07T00:24:08.619Z,20.40
2023-04-07T00:26:34.976Z,15.68
2023-04-07T00:29:01.345Z,15.02
2023-04-07T00:31:27.775Z,13.95
2023-04-07T00:33:54.348Z,16.15
2023-04-07T00:36:21.141Z,15.85
2023-04-07T00:38:47.479Z,14.35
2023-04-07T00:41:13.858Z,14.27
2023-04-07T00:43:40.305Z,13.15
2023-04-07T00:46:06.776Z,14.40
2023-04-07T00:48:33.479Z,15.02
2023-04-07T00:50:59.825Z,13.07
2023-04-07T00:53:26.268Z,13.90
2023-04-07T00:55:52.645Z,16.42
2023-04-07T00:58:18.954Z,16.65
2023-04-07T01:01:07.121Z,14.43
2023-04-07T01:03:46.485Z,14.10
2023-04-07T01:06:16.539Z,18.33
2023-04-07T01:08:53.908Z,15.45
2023-04-07T01:11:25.449Z,16.25
2023-04-07T01:13:53.546Z,13.57
2023-04-07T01:16:30.073Z,14.65
2023-04-07T01:19:04.181Z,13.68
2023-04-07T01:21:33.866Z,13.23
2023-04-07T01:24:39.270Z,14.00
2023-04-07T01:27:25.274Z,10.85
2023-04-07T01:29:53.623Z,12.65
2023-04-07T01:32:20.424Z,12.00
2023-04-07T01:34:49.270Z,11.88
2023-04-07T01:37:17.105Z,12.15
2023-04-07T01:39:43.801Z,12.95
2023-04-07T01:42:11.281Z,12.13
2023-04-07T01:44:38.385Z,11.52
2023-04-07T01:47:06.034Z,13.02
2023-04-07T01:49:33.762Z,15.00
2023-04-07T01:52:00.388Z,11.32
2023-04-07T01:54:27.206Z,13.73
2023-04-07T01:56:53.616Z,15.25
2023-04-07T01:59:19.976Z,11.27
2023-04-07T02:01:46.482Z,11.40
2023-04-07T02:04:30.828Z,11.07
2023-04-07T02:07:03.113Z,13.00
2023-04-07T02:09:32.054Z,12.40
2023-04-07T02:12:00.549Z,12.98
2023-04-07T02:14:27.964Z,16.13
2023-04-07T02:16:56.000Z,14.45
2023-04-07T02:19:22.536Z,13.82
2023-04-07T02:21:51.497Z,14.23
2023-04-07T02:24:20.606Z,14.15
2023-04-07T02:26:46.938Z,15.55
2023-04-07T02:29:13.611Z,15.63
2023-04-07T02:31:40.018Z,15.10
2023-04-07T02:34:06.353Z,19.73
2023-04-07T02:36:32.724Z,17.27
2023-04-07T02:38:59.055Z,16.55
2023-04-07T02:41:25.380Z,18.50
2023-04-07T02:43:51.705Z,16.33
2023-04-07T02:46:18.077Z,18.85
2023-04-07T02:48:44.410Z,20.08
2023-04-07T02:51:10.710Z,21.67
2023-04-07T02:53:37.031Z,22.55
2023-04-07T02:56:03.629Z,19.75
2023-04-07T02:58:29.932Z,20.85
2023-04-07T03:00:56.300Z,19.42
2023-04-07T03:03:22.892Z,18.20
2023-04-07T03:05:49.424Z,19.05
2023-04-07T03:08:15.759Z,21.02
2023-04-07T03:10:42.066Z,18.33
2023-04-07T03:13:08.447Z,20.55
2023-04-07T03:15:34.884Z,20.88
2023-04-07T03:18:01.280Z,20.05
2023-04-07T03:20:27.609Z,20.65
2023-04-07T03:22:53.924Z,23.73
2023-04-07T03:25:20.269Z,19.17
2023-04-07T03:27:46.556Z,19.10
2023-04-07T03:30:13.110Z,22.50
2023-04-07T03:32:39.448Z,21.13
2023-04-07T03:35:06.140Z,22.73
2023-04-07T03:37:32.442Z,22.50
2023-04-07T03:39:58.769Z,26.30
2023-04-07T03:42:25.086Z,23.25
2023-04-07T03:44:51.404Z,25.55
2023-04-07T03:47:17.776Z,23.75
2023-04-07T03:49:44.187Z,23.45
2023-04-07T03:52:10.492Z,22.33
2023-04-07T03:54:36.788Z,24.98
2023-04-07T03:57:03.290Z,24.40
2023-04-07T03:59:29.611Z,26.05
2023-04-07T04:01:56.043Z,25.67
2023-04-07T04:04:22.420Z,25.67
2023-04-07T04:06:48.985Z,26.55
2023-04-07T04:09:15.293Z,26.40
2023-04-07T04:11:41.597Z,26.40
2023-04-07T04:14:07.979Z,24.75
2023-04-07T04:16:34.534Z,26.02
2023-04-07T04:19:01.572Z,28.35
2023-04-07T04:21:27.904Z,25.27
2023-04-07T04:23:54.382Z,23.23
2023-04-07T04:26:20.811Z,24.52
2023-04-07T04:28:47.124Z,28.80
2023-04-07T04:31:13.545Z,28.25
2023-04-07T04:33:39.960Z,26.92
2023-04-07T04:36:06.762Z,27.42
2023-04-07T04:38:33.070Z,27.23
2023-04-07T04:40:59.441Z,27.35
2023-04-07T04:43:25.811Z,25.00
2023-04-07T04:45:52.140Z,25.45
2023-04-07T04:48:18.465Z,26.80
2023-04-07T04:50:44.762Z,26.77
2023-04-07T04:53:11.085Z,29.02
2023-04-07T04:55:37.393Z,28.17
2023-04-07T04:58:03.708Z,26.70
2023-04-07T05:00:30.005Z,30.00
2023-04-07T05:02:56.510Z,29.83
2023-04-07T05:05:23.075Z,31.73
2023-04-07T05:07:49.411Z,26.58
2023-04-07T05:10:15.827Z,30.35
2023-04-07T05:12:42.164Z,27.67
2023-04-07T05:15:08.895Z,29.33
2023-04-07T05:17:35.373Z,30.83
2023-04-07T05:20:01.929Z,31.65
2023-04-07T05:22:28.236Z,28.35
2023-04-07T05:24:54.589Z,26.83
2023-04-07T05:27:21.051Z,28.60
2023-04-07T05:29:47.400Z,29.17
2023-04-07T05:32:13.745Z,24.85
2023-04-07T05:34:40.075Z,30.95
2023-04-07T05:37:06.420Z,23.75
2023-04-07T05:39:32.763Z,23.65
2023-04-07T05:41:59.048Z,22.83
2023-04-07T05:44:25.407Z,28.17
2023-04-07T05:46:51.702Z,23.48
2023-04-07T05:49:20.151Z,23.10
2023-04-07T05:51:48.348Z,23.90
2023-04-07T05:54:15.389Z,21.73
2023-04-07T05:56:41.765Z,22.58
2023-04-07T05:59:08.090Z,20.00
2023-04-07T06:01:34.414Z,20.88
2023-04-07T06:04:00.801Z,20.05
2023-04-07T06:06:27.145Z,21.60
2023-04-07T06:08:53.478Z,20.48
2023-04-07T06:11:19.788Z,21.02
2023-04-07T06:13:46.166Z,19.73
2023-04-07T06:16:12.727Z,20.75
2023-04-07T06:18:39.128Z,19.17
2023-04-07T06:21:05.665Z,17.58
2023-04-07T06:23:31.985Z,18.33
2023-04-07T06:25:58.457Z,17.05
2023-04-07T06:28:24.985Z,16.88
2023-04-07T06:30:51.421Z,17.38
2023-04-07T06:33:17.781Z,17.40
2023-04-07T06:35:44.242Z,17.42
2023-04-07T06:38:10.545Z,17.17
2023-04-07T06:40:36.949Z,16.30
2023-04-07T06:43:03.276Z,16.52
2023-04-07T06:45:29.784Z,15.82
2023-04-07T06:47:56.121Z,17.48
2023-04-07T06:50:22.450Z,16.38
2023-04-07T06:52:48.732Z,16.25
2023-04-07T06:55:15.109Z,15.18
2023-04-07T06:57:41.491Z,14.50
2023-04-07T07:00:08.379Z,14.85
2023-04-07T07:02:34.853Z,14.18
2023-04-07T07:05:01.671Z,14.27
2023-04-07T07:07:27.998Z,14.25
2023-04-07T07:09:54.296Z,12.93
2023-04-07T07:12:20.629Z,12.48
2023-04-07T07:14:46.956Z,13.05
2023-04-07T07:17:13.286Z,12.60
2023-04-07T07:19:39.606Z,12.65
2023-04-07T07:22:06.014Z,12.15
2023-04-07T07:24:32.324Z,12.82
2023-04-07T07:26:58.638Z,10.40
2023-04-07T07:29:25.004Z,10.77
2023-04-07T07:31:51.518Z,13.57
2023-04-07T07:34:17.809Z,11.40
2023-04-07T07:36:44.227Z,12.23
2023-04-07T07:39:10.549Z,11.25
2023-04-07T07:41:36.878Z,11.35
2023-04-07T07:44:03.227Z,10.15
2023-04-07T07:46:29.633Z,10.55
2023-04-07T07:48:55.984Z,13.82
2023-04-07T07:51:22.304Z,10.23
2023-04-07T07:53:48.862Z,10.48
2023-04-07T07:56:15.424Z,8.25
2023-04-07T07:58:41.857Z,8.88
2023-04-07T08:01:08.152Z,7.32
2023-04-07T08:03:34.597Z,9.18
2023-04-07T08:06:00.998Z,8.23
2023-04-07T08:08:27.348Z,8.45
2023-04-07T08:10:53.647Z,7.63
2023-04-07T08:13:19.984Z,7.70
2023-04-07T08:15:46.322Z,8.38
2023-04-07T08:18:12.709Z,8.80
2023-04-07T08:20:39.052Z,9.65
2023-04-07T08:23:05.407Z,8.73
2023-04-07T08:25:31.730Z,8.65
2023-04-07T08:27:58.057Z,8.77
2023-04-07T08:30:24.537Z,8.85
2023-04-07T08:32:50.953Z,9.98
2023-04-07T08:35:17.325Z,8.48
2023-04-07T08:37:43.624Z,9.73
2023-04-07T08:40:10.536Z,11.27
2023-04-07T08:42:41.724Z,11.02
2023-04-07T08:45:08.960Z,9.40
2023-04-07T08:47:36.837Z,9.13
2023-04-07T08:50:05.622Z,7.68
2023-04-07T08:52:34.869Z,9.50
2023-04-07T08:55:01.271Z,10.15
2023-04-07T08:57:30.377Z,8.43
2023-04-07T08:59:58.832Z,8.88
2023-04-07T09:02:25.292Z,10.05
2023-04-07T09:04:52.007Z,8.45
2023-04-07T09:07:18.297Z,12.73
2023-04-07T09:09:44.641Z,7.30
2023-04-07T09:12:11.638Z,6.43
2023-04-07T09:14:37.964Z,6.20
2023-04-07T09:17:04.269Z,9.68
2023-04-07T09:19:30.612Z,7.68
2023-04-07T09:21:56.911Z,6.85
2023-04-07T09:24:27.957Z,7.00
2023-04-07T09:27:16.561Z,7.45
2023-04-07T09:29:45.351Z,7.45
2023-04-07T09:32:12.552Z,6.70
2023-04-07T09:34:41.211Z,9.18
2023-04-07T09:37:08.580Z,7.80
2023-04-07T09:39:49.654Z,7.13
2023-04-07T09:42:16.005Z,7.13
2023-04-07T09:44:42.411Z,7.85
2023-04-07T09:47:08.859Z,7.53
2023-04-07T09:49:48.931Z,5.65
2023-04-07T09:52:15.269Z,8.95
2023-04-07T09:54:41.892Z,7.05
2023-04-07T09:57:10.525Z,9.30
2023-04-07T09:59:40.163Z,13.32
2023-04-07T10:02:07.481Z,9.45
2023-04-07T10:04:34.035Z,7.57
2023-04-07T10:07:00.838Z,8.60
2023-04-07T10:09:28.222Z,9.93
2023-04-07T10:11:56.070Z,9.73
2023-04-07T10:14:25.973Z,11.20
2023-04-07T10:16:52.910Z,13.80
2023-04-07T10:19:19.421Z,11.35
2023-04-07T10:21:50.506Z,11.40
2023-04-07T10:24:22.739Z,11.25
2023-04-07T10:26:54.430Z,10.32
2023-04-07T10:29:21.857Z,12.88
2023-04-07T10:31:48.570Z,8.95
2023-04-07T10:34:14.910Z,13.63
2023-04-07T10:37:11.528Z,14.02
2023-04-07T10:39:37.865Z,11.82
2023-04-07T10:42:04.182Z,15.55
2023-04-07T10:44:39.451Z,10.52
2023-04-07T10:47:06.240Z,13.13
2023-04-07T10:49:34.158Z,11.73
2023-04-07T10:52:12.474Z,12.40
2023-04-07T10:54:39.747Z,12.70
2023-04-07T10:57:06.835Z,14.73
2023-04-07T10:59:33.941Z,12.50
2023-04-07T11:02:12.400Z,11.10
2023-04-07T11:04:40.317Z,14.18
2023-04-07T11:07:07.327Z,16.98
2023-04-07T11:09:33.933Z,13.18
2023-04-07T11:12:00.241Z,13.35
2023-04-07T11:14:27.666Z,16.45
2023-04-07T11:16:54.273Z,15.82
2023-04-07T11:19:20.580Z,15.20
2023-04-07T11:21:46.904Z,14.88
2023-04-07T11:24:35.775Z,14.52
2023-04-07T11:27:02.144Z,13.77
2023-04-07T11:29:32.012Z,17.80
2023-04-07T11:31:59.512Z,15.45
2023-04-07T11:34:36.298Z,13.90
2023-04-07T11:37:23.722Z,13.50
2023-04-07T11:39:59.412Z,14.70
2023-04-07T11:42:52.152Z,13.05
2023-04-07T11:45:19.169Z,14.45
2023-04-07T11:47:45.504Z,16.42
2023-04-07T11:50:14.266Z,13.45
2023-04-07T11:52:45.216Z,14.93
2023-04-07T11:55:22.487Z,16.38
2023-04-07T11:57:48.993Z,13.57
2023-04-07T12:00:15.487Z,14.73
2023-04-07T12:02:42.198Z,14.27
2023-04-07T12:05:08.989Z,16.33
2023-04-07T12:07:38.768Z,13.55
2023-04-07T12:10:24.524Z,14.38
2023-04-07T12:12:50.871Z,14.73
2023-04-07T12:15:17.413Z,14.23
2023-04-07T12:17:48.372Z,14.98
2023-04-07T12:20:15.893Z,13.73
2023-04-07T12:22:42.440Z,15.43
2023-04-07T12:25:08.941Z,15.10
2023-04-07T12:27:42.612Z,14.75
2023-04-07T12:30:10.265Z,12.80
2023-04-07T12:32:36.615Z,13.68
2023-04-07T12:35:04.112Z,12.20
2023-04-07T12:37:30.439Z,14.60
2023-04-07T12:39:56.748Z,13.95
2023-04-07T12:42:23.045Z,13.52
2023-04-07T12:44:49.381Z,15.73
2023-04-07T12:47:15.793Z,12.93
2023-04-07T12:49:42.108Z,14.13
2023-04-07T12:52:08.414Z,15.10
2023-04-07T12:54:34.730Z,15.15
2023-04-07T12:57:01.041Z,13.70
2023-04-07T12:59:27.371Z,14.48
2023-04-07T13:01:53.881Z,16.23
2023-04-07T13:04:20.421Z,14.10
2023-04-07T13:06:46.807Z,14.13
2023-04-07T13:09:13.121Z,13.05
2023-04-07T13:11:39.432Z,14.75
2023-04-07T13:14:05.763Z,15.43
2023-04-07T13:16:32.101Z,13.52
2023-04-07T13:18:58.506Z,14.20
2023-04-07T13:21:42.659Z,12.02
2023-04-07T13:24:11.101Z,12.43
2023-04-07T13:26:37.404Z,13.60
2023-04-07T13:29:03.718Z,13.82
2023-04-07T13:31:30.008Z,13.25
2023-04-07T13:33:56.331Z,14.05
2023-04-07T13:36:23.480Z,14.82
2023-04-07T13:38:49.878Z,16.10
2023-04-07T13:41:16.183Z,13.82
2023-04-07T13:43:42.495Z,12.77
2023-04-07T13:46:17.313Z,14.13
2023-04-07T13:48:51.211Z,12.18
2023-04-07T13:51:18.023Z,13.02
2023-04-07T13:53:45.431Z,18.20
2023-04-07T13:56:11.756Z,13.80
2023-04-07T13:58:38.070Z,14.02
2023-04-07T14:01:04.439Z,10.63
2023-04-07T14:03:30.880Z,11.40
2023-04-07T14:05:57.224Z,15.02
2023-04-07T14:08:23.545Z,17.05
2023-04-07T14:10:50.017Z,14.00
2023-04-07T14:13:16.316Z,16.70
2023-04-07T14:15:42.613Z,16.98
2023-04-07T14:18:09.075Z,13.70
2023-04-07T14:20:35.542Z,14.02
2023-04-07T14:23:01.833Z,13.45
2023-04-07T14:25:28.164Z,12.95
2023-04-07T14:27:54.463Z,14.30
2023-04-07T14:30:20.910Z,14.30
2023-04-07T14:32:47.262Z,14.52
2023-04-07T14:35:13.646Z,15.77
2023-04-07T14:37:39.956Z,14.43
2023-04-07T14:40:07.184Z,17.20
2023-04-07T14:42:33.599Z,16.63
2023-04-07T14:45:00.557Z,15.38
2023-04-07T14:47:27.357Z,19.02
2023-04-07T14:49:53.895Z,17.02
2023-04-07T14:52:20.476Z,18.33
2023-04-07T14:54:46.846Z,17.30
2023-04-07T14:57:13.157Z,16.95
2023-04-07T14:59:39.435Z,18.05
2023-04-07T15:02:06.666Z,17.17
2023-04-07T15:04:33.279Z,14.90
2023-04-07T15:06:59.639Z,17.92
2023-04-07T15:09:25.957Z,16.25
2023-04-07T15:11:52.265Z,15.45
2023-04-07T15:14:18.556Z,19.60
2023-04-07T15:16:44.866Z,14.23
2023-04-07T15:19:11.154Z,14.23
2023-04-07T15:21:37.491Z,17.33
2023-04-07T15:24:03.778Z,14.60
2023-04-07T15:26:30.130Z,16.42
2023-04-07T15:28:56.422Z,16.70
2023-04-07T15:31:23.602Z,17.98
2023-04-07T15:33:50.166Z,18.55
2023-04-07T15:36:16.763Z,17.15
2023-04-07T15:38:43.078Z,20.27
2023-04-07T15:41:09.382Z,18.10
2023-04-07T15:43:35.881Z,15.32
2023-04-07T15:46:02.271Z,17.77
2023-04-07T15:48:28.573Z,15.27
2023-04-07T15:50:54.955Z,17.15
2023-04-07T15:53:21.330Z,17.30
2023-04-07T15:55:47.740Z,14.98
2023-04-07T15:58:14.066Z,18.38
2023-04-07T16:00:40.842Z,16.10
2023-04-07T16:03:07.398Z,26.90
2023-04-07T16:05:33.924Z,22.85
2023-04-07T16:08:00.322Z,21.58
2023-04-07T16:10:26.676Z,17.75
2023-04-07T16:12:52.995Z,14.70
2023-04-07T16:15:28.976Z,18.30
2023-04-07T16:18:07.351Z,15.55
2023-04-07T16:20:33.752Z,14.82
2023-04-07T16:23:00.095Z,15.30
2023-04-07T16:25:26.558Z,19.33
2023-04-07T16:27:53.192Z,13.57
2023-04-07T16:30:20.129Z,14.48
2023-04-07T16:32:46.751Z,13.95
2023-04-07T16:35:16.327Z,15.23
2023-04-07T16:37:43.223Z,14.68
2023-04-07T16:40:10.213Z,19.52
2023-04-07T16:42:36.586Z,16.33
2023-04-07T16:45:03.285Z,19.30
2023-04-07T16:47:31.053Z,18.42
2023-04-07T16:49:58.569Z,18.45
2023-04-07T16:52:25.158Z,20.58
2023-04-07T16:54:51.747Z,15.48
2023-04-07T16:57:18.072Z,15.15
2023-04-07T16:59:44.369Z,17.80
2023-04-07T17:02:12.012Z,19.33
2023-04-07T17:04:39.614Z,15.98
2023-04-07T17:07:06.287Z,16.35
2023-04-07T17:09:33.275Z,14.40
2023-04-07T17:12:00.605Z,16.15
2023-04-07T17:14:27.616Z,19.35
2023-04-07T17:16:54.006Z,16.05
2023-04-07T17:19:20.320Z,17.65
2023-04-07T17:21:47.086Z,19.55
2023-04-07T17:24:13.644Z,16.00
2023-04-07T17:26:39.965Z,14.23
2023-04-07T17:29:06.275Z,15.27
2023-04-07T17:31:32.854Z,13.65
2023-04-07T17:33:59.239Z,15.77
2023-04-07T17:36:25.558Z,14.48
2023-04-07T17:38:51.874Z,15.27
2023-04-07T17:41:18.169Z,16.70
2023-04-07T17:43:44.481Z,14.80
2023-04-07T17:46:10.783Z,14.27
2023-04-07T17:48:37.128Z,21.55
2023-04-07T17:51:03.503Z,15.20
2023-04-07T17:53:29.893Z,14.10
2023-04-07T17:55:56.204Z,16.63
2023-04-07T17:58:22.533Z,17.33
2023-04-07T18:00:48.969Z,17.40
2023-04-07T18:03:15.457Z,16.50
2023-04-07T18:05:46.467Z,14.68
2023-04-07T18:08:12.766Z,14.13
2023-04-07T18:10:39.401Z,14.90
2023-04-07T18:13:05.762Z,13.90
2023-04-07T18:15:32.661Z,15.57
2023-04-07T18:17:59.126Z,12.65
2023-04-07T18:20:25.587Z,16.60
2023-04-07T18:22:51.989Z,15.45
2023-04-07T18:25:18.313Z,15.95
2023-04-07T18:27:44.620Z,13.75
2023-04-07T18:30:11.180Z,16.33
2023-04-07T18:32:38.319Z,16.55
2023-04-07T18:35:05.672Z,16.98
2023-04-07T18:37:31.987Z,18.65
2023-04-07T18:39:58.336Z,18.27
2023-04-07T18:42:25.408Z,17.48
2023-04-07T18:44:51.719Z,18.85
2023-04-07T18:47:18.021Z,17.25
2023-04-07T18:49:44.321Z,18.73
2023-04-07T18:52:10.637Z,16.40
2023-04-07T18:54:36.928Z,15.45
2023-04-07T18:57:03.350Z,16.23
2023-04-07T18:59:29.659Z,19.38
2023-04-07T19:01:56.052Z,16.58
2023-04-07T19:04:22.685Z,17.55
2023-04-07T19:06:52.184Z,12.55
2023-04-07T19:09:18.482Z,14.07
2023-04-07T19:11:44.836Z,14.50
2023-04-07T19:14:11.169Z,17.20
2023-04-07T19:16:37.652Z,17.40
2023-04-07T19:19:04.046Z,16.42
2023-04-07T19:21:30.649Z,17.83
2023-04-07T19:23:57.083Z,17.67
2023-04-07T19:26:23.487Z,13.57
2023-04-07T19:28:49.839Z,13.35
2023-04-07T19:31:16.229Z,13.68
2023-04-07T19:33:42.754Z,13.18
2023-04-07T19:36:09.395Z,14.30
2023-04-07T19:38:35.717Z,13.50
2023-04-07T19:41:02.064Z,17.25
2023-04-07T19:43:28.401Z,13.05
2023-04-07T19:45:54.745Z,12.25
2023-04-07T19:48:21.208Z,32.28
2023-04-07T19:50:48.303Z,25.33
2023-04-07T19:53:14.596Z,19.33
2023-04-07T19:55:41.089Z,14.70
2023-04-07T19:58:07.397Z,14.63
2023-04-07T20:00:35.078Z,16.67
2023-04-07T20:03:01.652Z,13.00
2023-04-07T20:05:28.055Z,13.75
2023-04-07T20:07:54.359Z,14.68
2023-04-07T20:10:20.651Z,12.00
2023-04-07T20:12:46.974Z,13.50
2023-04-07T20:15:13.388Z,16.08
2023-04-07T20:17:39.919Z,16.08
2023-04-07T20:20:06.974Z,16.05
2023-04-07T20:22:36.342Z,15.52
2023-04-07T20:25:02.682Z,19.00
2023-04-07T20:27:28.991Z,14.55
2023-04-07T20:29:55.282Z,16.38
2023-04-07T20:32:21.614Z,13.45
2023-04-07T20:34:47.928Z,12.75
2023-04-07T20:37:14.233Z,21.27
2023-04-07T20:39:40.545Z,17.27
2023-04-07T20:42:06.897Z,15.05
2023-04-07T20:44:33.242Z,13.85
2023-04-07T20:46:59.540Z,15.93
2023-04-07T20:49:26.547Z,16.35
2023-04-07T20:51:52.856Z,13.55
2023-04-07T20:54:19.180Z,12.30
2023-04-07T20:56:45.477Z,11.52
2023-04-07T20:59:11.792Z,14.73
2023-04-07T21:01:38.255Z,14.65
2023-04-07T21:04:04.733Z,15.27
2023-04-07T21:06:31.147Z,14.23
2023-04-07T21:08:57.435Z,16.33
2023-04-07T21:11:23.780Z,13.02
2023-04-07T21:13:50.079Z,12.35
2023-04-07T21:16:16.527Z,12.93
2023-04-07T21:18:42.881Z,13.50
2023-04-07T21:21:09.206Z,14.93
2023-04-07T21:23:35.542Z,13.88
2023-04-07T21:26:02.771Z,16.10
2023-04-07T21:28:29.312Z,15.45
2023-04-07T21:30:55.702Z,17.80
2023-04-07T21:33:22.449Z,16.17
2023-04-07T21:35:49.670Z,16.30
2023-04-07T21:38:16.352Z,17.92
2023-04-07T21:40:42.667Z,15.70
2023-04-07T21:43:08.964Z,16.77
2023-04-07T21:45:35.269Z,16.85
2023-04-07T21:48:02.095Z,13.30
2023-04-07T21:50:28.412Z,15.10
2023-04-07T21:52:54.726Z,17.02
2023-04-07T21:55:21.052Z,15.05
2023-04-07T21:57:47.652Z,16.67
2023-04-07T22:00:14.433Z,18.35
2023-04-07T22:02:40.875Z,14.57
2023-04-07T22:05:07.723Z,11.85
2023-04-07T22:07:34.072Z,16.20
2023-04-07T22:10:00.367Z,18.35
2023-04-07T22:12:26.682Z,14.80
2023-04-07T22:14:53.020Z,14.13
2023-04-07T22:17:19.346Z,17.45
2023-04-07T22:19:45.640Z,12.40
2023-04-07T22:22:11.950Z,12.30
2023-04-07T22:24:38.243Z,13.75
2023-04-07T22:27:04.568Z,12.95
2023-04-07T22:29:30.875Z,12.82
2023-04-07T22:31:57.340Z,14.02
2023-04-07T22:34:23.876Z,16.67
2023-04-07T22:36:50.173Z,12.10
2023-04-07T22:39:16.495Z,12.43
2023-04-07T22:41:42.793Z,12.18
2023-04-07T22:44:09.176Z,12.65
2023-04-07T22:46:35.527Z,12.82
2023-04-07T22:49:01.923Z,14.63
2023-04-07T22:51:28.218Z,12.75
2023-04-07T22:53:54.719Z,12.90
2023-04-07T22:56:21.006Z,11.70
2023-04-07T22:58:47.611Z,13.07
2023-04-07T23:01:14.248Z,16.33
2023-04-07T23:03:40.718Z,12.40
2023-04-07T23:06:07.116Z,12.52
2023-04-07T23:08:33.551Z,12.93
2023-04-07T23:10:59.935Z,11.48
2023-04-07T23:13:26.488Z,14.13
2023-04-07T23:15:52.812Z,16.17
2023-04-07T23:18:19.127Z,12.55
2023-04-07T23:20:51.677Z,11.75
2023-04-07T23:23:18.160Z,17.75
2023-04-07T23:25:44.994Z,13.15
2023-04-07T23:28:11.300Z,11.80
2023-04-07T23:30:37.602Z,12.38
2023-04-07T23:33:04.012Z,10.23
2023-04-07T23:35:30.365Z,12.20
2023-04-07T23:37:56.738Z,10.68
2023-04-07T23:40:23.055Z,11.38
2023-04-07T23:42:49.387Z,12.30
2023-04-07T23:45:15.821Z,12.10
2023-04-07T23:47:42.244Z,11.05
2023-04-07T23:50:08.919Z,10.23
2023-04-07T23:52:35.228Z,14.20
2023-04-07T23:55:01.598Z,12.10
2023-04-07T23:57:27.941Z,8.98
2023-04-07T23:59:54.501Z,12.07
